sensor_id;sensor_type;location;lat;lon;timestamp;temperature;humidity
43671;DHT22;29267;50.906;7.248;2023-02-01T00:01:20;5.40;99.90
43671;DHT22;29267;50.906;7.248;2023-02-01T00:03:46;5.40;99.90
43671;DHT22;29267;50.906;7.248;2023-02-01T00:06:11;5.40;99.90
43671;DHT22;29267;50.906;7.248;2023-02-01T00:11:59;5.40;99.90
43671;DHT22;29267;50.906;7.248;2023-02-01T00:14:27;5.40;99.90
43671;DHT22;29267;50.906;7.248;2023-02-01T00:16:53;5.40;99.90
43671;DHT22;29267;50.906;7.248;2023-02-01T00:19:18;5.40;99.90
43671;DHT22;29267;50.906;7.248;2023-02-01T00:21:44;5.30;99.90
43671;DHT22;29267;50.906;7.248;2023-02-01T00:24:11;5.20;99.90
43671;DHT22;29267;50.906;7.248;2023-02-01T00:29:06;5.10;99.90
43671;DHT22;29267;50.906;7.248;2023-02-01T00:31:32;5.00;99.90
43671;DHT22;29267;50.906;7.248;2023-02-01T00:33:57;5.00;99.90
43671;DHT22;29267;50.906;7.248;2023-02-01T00:36:23;5.00;99.90
43671;DHT22;29267;50.906;7.248;2023-02-01T00:38:49;5.10;99.90
43671;DHT22;29267;50.906;7.248;2023-02-01T00:41:19;5.10;99.90
43671;DHT22;29267;50.906;7.248;2023-02-01T00:43:46;5.10;99.90
43671;DHT22;29267;50.906;7.248;2023-02-01T00:46:13;5.00;99.90
43671;DHT22;29267;50.906;7.248;2023-02-01T00:48:39;5.00;99.90
43671;DHT22;29267;50.906;7.248;2023-02-01T00:51:07;5.10;99.90
43671;DHT22;29267;50.906;7.248;2023-02-01T00:53:34;5.10;99.90
43671;DHT22;29267;50.906;7.248;2023-02-01T00:55:59;5.10;99.90
43671;DHT22;29267;50.906;7.248;2023-02-01T00:58:25;5.20;99.90
43671;DHT22;29267;50.906;7.248;2023-02-01T01:03:27;5.20;99.90
43671;DHT22;29267;50.906;7.248;2023-02-01T01:05:56;5.20;99.90
43671;DHT22;29267;50.906;7.248;2023-02-01T01:08:22;5.20;99.90
43671;DHT22;29267;50.906;7.248;2023-02-01T01:10:48;5.20;99.90
43671;DHT22;29267;50.906;7.248;2023-02-01T01:13:14;5.20;99.90
43671;DHT22;29267;50.906;7.248;2023-02-01T01:15:41;5.20;99.90
43671;DHT22;29267;50.906;7.248;2023-02-01T01:18:07;5.10;99.90
43671;DHT22;29267;50.906;7.248;2023-02-01T01:20:39;5.10;99.90
43671;DHT22;29267;50.906;7.248;2023-02-01T01:23:07;5.10;99.90
43671;DHT22;29267;50.906;7.248;2023-02-01T01:25:38;5.10;99.90
43671;DHT22;29267;50.906;7.248;2023-02-01T01:28:03;5.10;99.90
43671;DHT22;29267;50.906;7.248;2023-02-01T01:30:29;5.10;99.90
43671;DHT22;29267;50.906;7.248;2023-02-01T01:32:54;5.10;99.90
43671;DHT22;29267;50.906;7.248;2023-02-01T01:35:20;5.10;99.90
43671;DHT22;29267;50.906;7.248;2023-02-01T01:37:46;5.10;99.90
43671;DHT22;29267;50.906;7.248;2023-02-01T01:40:12;5.10;99.90
43671;DHT22;29267;50.906;7.248;2023-02-01T01:42:42;5.10;99.90
43671;DHT22;29267;50.906;7.248;2023-02-01T01:45:22;5.00;99.90
43671;DHT22;29267;50.906;7.248;2023-02-01T01:47:57;5.10;99.90
43671;DHT22;29267;50.906;7.248;2023-02-01T01:50:29;5.10;99.90
43671;DHT22;29267;50.906;7.248;2023-02-01T01:52:57;5.00;99.90
43671;DHT22;29267;50.906;7.248;2023-02-01T01:55:26;5.00;99.90
43671;DHT22;29267;50.906;7.248;2023-02-01T01:57:59;4.90;99.90
43671;DHT22;29267;50.906;7.248;2023-02-01T02:00:26;4.90;99.90
43671;DHT22;29267;50.906;7.248;2023-02-01T02:03:00;4.90;99.90
43671;DHT22;29267;50.906;7.248;2023-02-01T02:05:28;4.80;99.90
43671;DHT22;29267;50.906;7.248;2023-02-01T02:07:58;4.80;99.90
43671;DHT22;29267;50.906;7.248;2023-02-01T02:10:25;4.70;99.90
43671;DHT22;29267;50.906;7.248;2023-02-01T02:13:11;4.70;99.90
43671;DHT22;29267;50.906;7.248;2023-02-01T02:15:42;4.60;99.90
43671;DHT22;29267;50.906;7.248;2023-02-01T02:18:19;4.60;99.90
43671;DHT22;29267;50.906;7.248;2023-02-01T02:21:12;4.60;99.90
43671;DHT22;29267;50.906;7.248;2023-02-01T02:23:53;4.60;99.90
43671;DHT22;29267;50.906;7.248;2023-02-01T02:26:34;4.60;99.90
43671;DHT22;29267;50.906;7.248;2023-02-01T02:37:20;4.50;99.90
43671;DHT22;29267;50.906;7.248;2023-02-01T02:42:42;4.50;99.90
43671;DHT22;29267;50.906;7.248;2023-02-01T02:45:50;4.60;99.90
43671;DHT22;29267;50.906;7.248;2023-02-01T02:48:53;4.60;99.90
43671;DHT22;29267;50.906;7.248;2023-02-01T02:51:27;4.60;99.90
43671;DHT22;29267;50.906;7.248;2023-02-01T02:54:19;4.70;99.90
43671;DHT22;29267;50.906;7.248;2023-02-01T02:57:07;4.70;99.90
43671;DHT22;29267;50.906;7.248;2023-02-01T02:59:53;4.70;99.90
43671;DHT22;29267;50.906;7.248;2023-02-01T03:02:39;4.70;99.90
43671;DHT22;29267;50.906;7.248;2023-02-01T03:05:24;4.70;99.90
43671;DHT22;29267;50.906;7.248;2023-02-01T03:07:55;4.70;99.90
43671;DHT22;29267;50.906;7.248;2023-02-01T03:10:36;4.70;99.90
43671;DHT22;29267;50.906;7.248;2023-02-01T03:13:15;4.70;99.90
43671;DHT22;29267;50.906;7.248;2023-02-01T03:16:21;4.70;99.90
43671;DHT22;29267;50.906;7.248;2023-02-01T03:21:35;4.80;99.90
43671;DHT22;29267;50.906;7.248;2023-02-01T03:24:09;4.80;99.90
43671;DHT22;29267;50.906;7.248;2023-02-01T03:26:38;4.80;99.90
43671;DHT22;29267;50.906;7.248;2023-02-01T03:29:12;4.80;99.90
43671;DHT22;29267;50.906;7.248;2023-02-01T03:31:39;4.80;99.90
43671;DHT22;29267;50.906;7.248;2023-02-01T03:34:05;4.80;99.90
43671;DHT22;29267;50.906;7.248;2023-02-01T03:36:38;4.90;99.90
43671;DHT22;29267;50.906;7.248;2023-02-01T03:39:15;4.90;99.90
43671;DHT22;29267;50.906;7.248;2023-02-01T03:41:50;4.90;99.90
43671;DHT22;29267;50.906;7.248;2023-02-01T03:44:26;4.90;99.90
43671;DHT22;29267;50.906;7.248;2023-02-01T03:47:23;4.90;99.90
43671;DHT22;29267;50.906;7.248;2023-02-01T03:49:57;4.90;99.90
43671;DHT22;29267;50.906;7.248;2023-02-01T03:52:28;4.80;99.90
43671;DHT22;29267;50.906;7.248;2023-02-01T03:54:57;4.80;99.90
43671;DHT22;29267;50.906;7.248;2023-02-01T03:57:27;4.80;99.90
43671;DHT22;29267;50.906;7.248;2023-02-01T04:00:07;4.70;99.90
43671;DHT22;29267;50.906;7.248;2023-02-01T04:02:35;4.70;99.90
43671;DHT22;29267;50.906;7.248;2023-02-01T04:05:00;4.70;99.90
43671;DHT22;29267;50.906;7.248;2023-02-01T04:07:26;4.60;99.90
43671;DHT22;29267;50.906;7.248;2023-02-01T04:09:51;4.60;99.90
43671;DHT22;29267;50.906;7.248;2023-02-01T04:12:17;4.60;99.90
43671;DHT22;29267;50.906;7.248;2023-02-01T04:14:42;4.60;99.90
43671;DHT22;29267;50.906;7.248;2023-02-01T04:17:08;4.70;99.90
43671;DHT22;29267;50.906;7.248;2023-02-01T04:19:34;4.70;99.90
43671;DHT22;29267;50.906;7.248;2023-02-01T04:21:59;4.70;99.90
43671;DHT22;29267;50.906;7.248;2023-02-01T04:24:25;4.70;99.90
43671;DHT22;29267;50.906;7.248;2023-02-01T04:26:50;4.80;99.90
43671;DHT22;29267;50.906;7.248;2023-02-01T04:29:16;4.80;99.90
43671;DHT22;29267;50.906;7.248;2023-02-01T04:31:41;4.90;99.90
43671;DHT22;29267;50.906;7.248;2023-02-01T04:34:07;4.90;99.90
43671;DHT22;29267;50.906;7.248;2023-02-01T04:36:32;4.90;99.90
43671;DHT22;29267;50.906;7.248;2023-02-01T04:38:58;4.90;99.90
43671;DHT22;29267;50.906;7.248;2023-02-01T04:41:24;4.90;99.90
43671;DHT22;29267;50.906;7.248;2023-02-01T04:43:50;4.90;99.90
43671;DHT22;29267;50.906;7.248;2023-02-01T04:46:17;5.00;99.90
43671;DHT22;29267;50.906;7.248;2023-02-01T04:48:42;4.90;99.90
43671;DHT22;29267;50.906;7.248;2023-02-01T04:51:09;4.90;99.90
43671;DHT22;29267;50.906;7.248;2023-02-01T04:53:35;4.90;99.90
43671;DHT22;29267;50.906;7.248;2023-02-01T04:56:01;4.80;99.90
43671;DHT22;29267;50.906;7.248;2023-02-01T04:58:27;4.80;99.90
43671;DHT22;29267;50.906;7.248;2023-02-01T05:00:52;4.70;99.90
43671;DHT22;29267;50.906;7.248;2023-02-01T05:03:18;4.60;99.90
43671;DHT22;29267;50.906;7.248;2023-02-01T05:05:44;4.50;99.90
43671;DHT22;29267;50.906;7.248;2023-02-01T05:08:10;4.50;99.90
43671;DHT22;29267;50.906;7.248;2023-02-01T05:10:35;4.40;99.90
43671;DHT22;29267;50.906;7.248;2023-02-01T05:13:01;4.30;99.90
43671;DHT22;29267;50.906;7.248;2023-02-01T05:15:45;4.40;99.90
43671;DHT22;29267;50.906;7.248;2023-02-01T05:18:12;4.30;99.90
43671;DHT22;29267;50.906;7.248;2023-02-01T05:20:37;4.40;99.90
43671;DHT22;29267;50.906;7.248;2023-02-01T05:23:03;4.40;99.90
43671;DHT22;29267;50.906;7.248;2023-02-01T05:25:29;4.50;99.90
43671;DHT22;29267;50.906;7.248;2023-02-01T05:27:54;4.60;99.90
43671;DHT22;29267;50.906;7.248;2023-02-01T05:30:20;4.60;99.90
43671;DHT22;29267;50.906;7.248;2023-02-01T05:32:48;4.60;99.90
43671;DHT22;29267;50.906;7.248;2023-02-01T05:35:14;4.60;99.90
43671;DHT22;29267;50.906;7.248;2023-02-01T05:37:39;4.60;99.90
43671;DHT22;29267;50.906;7.248;2023-02-01T05:40:05;4.60;99.90
43671;DHT22;29267;50.906;7.248;2023-02-01T05:42:31;4.60;99.90
43671;DHT22;29267;50.906;7.248;2023-02-01T05:44:57;4.60;99.90
43671;DHT22;29267;50.906;7.248;2023-02-01T05:47:22;4.60;99.90
43671;DHT22;29267;50.906;7.248;2023-02-01T05:49:48;4.50;99.90
43671;DHT22;29267;50.906;7.248;2023-02-01T05:52:13;4.40;99.90
43671;DHT22;29267;50.906;7.248;2023-02-01T05:54:45;4.40;99.90
43671;DHT22;29267;50.906;7.248;2023-02-01T05:57:11;4.40;99.90
43671;DHT22;29267;50.906;7.248;2023-02-01T05:59:38;4.40;99.90
43671;DHT22;29267;50.906;7.248;2023-02-01T06:02:07;4.30;99.90
43671;DHT22;29267;50.906;7.248;2023-02-01T06:04:32;4.40;99.90
43671;DHT22;29267;50.906;7.248;2023-02-01T06:06:58;4.40;99.90
43671;DHT22;29267;50.906;7.248;2023-02-01T06:09:23;4.50;99.90
43671;DHT22;29267;50.906;7.248;2023-02-01T06:11:49;4.50;99.90
43671;DHT22;29267;50.906;7.248;2023-02-01T06:14:14;4.50;99.90
43671;DHT22;29267;50.906;7.248;2023-02-01T06:16:40;4.50;99.90
43671;DHT22;29267;50.906;7.248;2023-02-01T06:19:05;4.50;99.90
43671;DHT22;29267;50.906;7.248;2023-02-01T06:21:31;4.50;99.90
43671;DHT22;29267;50.906;7.248;2023-02-01T06:23:57;4.40;99.90
43671;DHT22;29267;50.906;7.248;2023-02-01T06:26:23;4.40;99.90
43671;DHT22;29267;50.906;7.248;2023-02-01T06:28:49;4.40;99.90
43671;DHT22;29267;50.906;7.248;2023-02-01T06:31:15;4.30;99.90
43671;DHT22;29267;50.906;7.248;2023-02-01T06:33:40;4.30;99.90
43671;DHT22;29267;50.906;7.248;2023-02-01T06:36:07;4.30;99.90
43671;DHT22;29267;50.906;7.248;2023-02-01T06:38:36;4.30;99.90
43671;DHT22;29267;50.906;7.248;2023-02-01T06:41:02;4.30;99.90
43671;DHT22;29267;50.906;7.248;2023-02-01T06:43:28;4.30;99.90
43671;DHT22;29267;50.906;7.248;2023-02-01T06:46:03;4.30;99.90
43671;DHT22;29267;50.906;7.248;2023-02-01T06:48:29;4.40;99.90
43671;DHT22;29267;50.906;7.248;2023-02-01T06:50:54;4.40;99.90
43671;DHT22;29267;50.906;7.248;2023-02-01T06:53:20;4.40;99.90
43671;DHT22;29267;50.906;7.248;2023-02-01T06:55:57;4.40;99.90
43671;DHT22;29267;50.906;7.248;2023-02-01T06:58:23;4.50;99.90
43671;DHT22;29267;50.906;7.248;2023-02-01T07:00:49;4.50;99.90
43671;DHT22;29267;50.906;7.248;2023-02-01T07:03:16;4.50;99.90
43671;DHT22;29267;50.906;7.248;2023-02-01T07:05:41;4.60;99.90
43671;DHT22;29267;50.906;7.248;2023-02-01T07:08:07;4.60;99.90
43671;DHT22;29267;50.906;7.248;2023-02-01T07:10:34;4.60;99.90
43671;DHT22;29267;50.906;7.248;2023-02-01T07:12:59;4.60;99.90
43671;DHT22;29267;50.906;7.248;2023-02-01T07:15:25;4.60;99.90
43671;DHT22;29267;50.906;7.248;2023-02-01T07:17:52;4.60;99.90
43671;DHT22;29267;50.906;7.248;2023-02-01T07:20:19;4.70;99.90
43671;DHT22;29267;50.906;7.248;2023-02-01T07:22:44;4.70;99.90
43671;DHT22;29267;50.906;7.248;2023-02-01T07:25:10;4.70;99.90
43671;DHT22;29267;50.906;7.248;2023-02-01T07:27:36;4.70;99.90
43671;DHT22;29267;50.906;7.248;2023-02-01T07:30:02;4.80;99.90
43671;DHT22;29267;50.906;7.248;2023-02-01T07:32:29;4.70;99.90
43671;DHT22;29267;50.906;7.248;2023-02-01T07:34:55;4.70;99.90
43671;DHT22;29267;50.906;7.248;2023-02-01T07:37:21;4.80;99.90
43671;DHT22;29267;50.906;7.248;2023-02-01T07:39:47;4.80;99.90
43671;DHT22;29267;50.906;7.248;2023-02-01T07:42:12;4.90;99.90
43671;DHT22;29267;50.906;7.248;2023-02-01T07:44:38;4.90;99.90
43671;DHT22;29267;50.906;7.248;2023-02-01T07:47:03;4.90;99.90
43671;DHT22;29267;50.906;7.248;2023-02-01T07:49:29;4.90;99.90
43671;DHT22;29267;50.906;7.248;2023-02-01T07:51:55;4.90;99.90
43671;DHT22;29267;50.906;7.248;2023-02-01T07:54:20;4.90;99.90
43671;DHT22;29267;50.906;7.248;2023-02-01T07:56:46;5.00;99.90
43671;DHT22;29267;50.906;7.248;2023-02-01T07:59:11;5.00;99.90
43671;DHT22;29267;50.906;7.248;2023-02-01T08:01:37;5.00;99.90
43671;DHT22;29267;50.906;7.248;2023-02-01T08:04:03;5.00;99.90
43671;DHT22;29267;50.906;7.248;2023-02-01T08:06:32;5.00;99.90
43671;DHT22;29267;50.906;7.248;2023-02-01T08:08:59;5.10;99.90
43671;DHT22;29267;50.906;7.248;2023-02-01T08:11:25;5.10;99.90
43671;DHT22;29267;50.906;7.248;2023-02-01T08:13:51;5.10;99.90
43671;DHT22;29267;50.906;7.248;2023-02-01T08:16:18;5.20;99.90
43671;DHT22;29267;50.906;7.248;2023-02-01T08:18:44;5.20;99.90
43671;DHT22;29267;50.906;7.248;2023-02-01T08:21:21;5.10;99.90
43671;DHT22;29267;50.906;7.248;2023-02-01T08:23:47;5.10;99.90
43671;DHT22;29267;50.906;7.248;2023-02-01T08:26:22;5.10;99.90
43671;DHT22;29267;50.906;7.248;2023-02-01T08:28:57;5.10;99.90
43671;DHT22;29267;50.906;7.248;2023-02-01T08:31:24;5.10;99.90
43671;DHT22;29267;50.906;7.248;2023-02-01T08:33:52;5.10;99.90
43671;DHT22;29267;50.906;7.248;2023-02-01T08:36:19;5.00;99.90
43671;DHT22;29267;50.906;7.248;2023-02-01T08:38:45;5.00;99.90
43671;DHT22;29267;50.906;7.248;2023-02-01T08:41:13;5.10;99.90
43671;DHT22;29267;50.906;7.248;2023-02-01T08:43:39;5.10;99.90
43671;DHT22;29267;50.906;7.248;2023-02-01T08:46:05;5.10;99.90
43671;DHT22;29267;50.906;7.248;2023-02-01T08:48:32;5.10;99.90
43671;DHT22;29267;50.906;7.248;2023-02-01T08:51:00;5.10;99.90
43671;DHT22;29267;50.906;7.248;2023-02-01T08:53:25;5.10;99.90
43671;DHT22;29267;50.906;7.248;2023-02-01T08:55:51;5.10;99.90
43671;DHT22;29267;50.906;7.248;2023-02-01T08:58:17;5.20;99.90
43671;DHT22;29267;50.906;7.248;2023-02-01T09:00:43;5.20;99.90
43671;DHT22;29267;50.906;7.248;2023-02-01T09:03:10;5.20;99.90
43671;DHT22;29267;50.906;7.248;2023-02-01T09:05:36;5.20;99.90
43671;DHT22;29267;50.906;7.248;2023-02-01T09:08:02;5.30;99.90
43671;DHT22;29267;50.906;7.248;2023-02-01T09:10:28;5.30;99.90
43671;DHT22;29267;50.906;7.248;2023-02-01T09:12:53;5.40;99.90
43671;DHT22;29267;50.906;7.248;2023-02-01T09:15:19;5.50;99.90
43671;DHT22;29267;50.906;7.248;2023-02-01T09:17:44;5.60;99.90
43671;DHT22;29267;50.906;7.248;2023-02-01T09:20:11;5.60;99.90
43671;DHT22;29267;50.906;7.248;2023-02-01T09:22:36;5.70;99.90
43671;DHT22;29267;50.906;7.248;2023-02-01T09:25:02;5.70;99.90
43671;DHT22;29267;50.906;7.248;2023-02-01T09:27:28;5.70;99.90
43671;DHT22;29267;50.906;7.248;2023-02-01T09:29:53;5.70;99.90
43671;DHT22;29267;50.906;7.248;2023-02-01T09:32:23;5.80;99.90
43671;DHT22;29267;50.906;7.248;2023-02-01T09:34:52;5.80;99.90
43671;DHT22;29267;50.906;7.248;2023-02-01T09:37:18;5.80;99.90
43671;DHT22;29267;50.906;7.248;2023-02-01T09:39:44;5.90;99.90
43671;DHT22;29267;50.906;7.248;2023-02-01T09:47:23;5.70;99.90
43671;DHT22;29267;50.906;7.248;2023-02-01T09:50:03;5.70;99.90
43671;DHT22;29267;50.906;7.248;2023-02-01T09:52:34;5.70;99.90
43671;DHT22;29267;50.906;7.248;2023-02-01T09:55:15;5.70;99.90
43671;DHT22;29267;50.906;7.248;2023-02-01T09:57:56;5.80;99.90
43671;DHT22;29267;50.906;7.248;2023-02-01T10:00:27;5.80;99.90
43671;DHT22;29267;50.906;7.248;2023-02-01T10:02:54;5.80;99.90
43671;DHT22;29267;50.906;7.248;2023-02-01T10:08:06;5.90;99.90
43671;DHT22;29267;50.906;7.248;2023-02-01T10:10:47;5.90;99.90
43671;DHT22;29267;50.906;7.248;2023-02-01T10:13:29;5.90;99.90
43671;DHT22;29267;50.906;7.248;2023-02-01T10:26:24;6.00;99.90
43671;DHT22;29267;50.906;7.248;2023-02-01T10:28:52;6.00;99.90
43671;DHT22;29267;50.906;7.248;2023-02-01T10:31:18;6.00;99.90
43671;DHT22;29267;50.906;7.248;2023-02-01T10:33:52;6.20;99.90
43671;DHT22;29267;50.906;7.248;2023-02-01T10:36:41;6.30;99.90
43671;DHT22;29267;50.906;7.248;2023-02-01T10:39:11;6.40;99.90
43671;DHT22;29267;50.906;7.248;2023-02-01T10:41:39;6.50;99.90
43671;DHT22;29267;50.906;7.248;2023-02-01T10:44:11;6.60;99.90
43671;DHT22;29267;50.906;7.248;2023-02-01T10:46:38;6.60;99.90
43671;DHT22;29267;50.906;7.248;2023-02-01T10:49:05;6.70;99.90
43671;DHT22;29267;50.906;7.248;2023-02-01T10:54:37;7.00;99.90
43671;DHT22;29267;50.906;7.248;2023-02-01T10:57:10;7.00;99.90
43671;DHT22;29267;50.906;7.248;2023-02-01T10:59:36;7.10;99.90
43671;DHT22;29267;50.906;7.248;2023-02-01T11:02:33;7.10;99.90
43671;DHT22;29267;50.906;7.248;2023-02-01T11:05:08;7.30;99.90
43671;DHT22;29267;50.906;7.248;2023-02-01T11:07:36;7.50;99.90
43671;DHT22;29267;50.906;7.248;2023-02-01T11:10:03;7.40;99.90
43671;DHT22;29267;50.906;7.248;2023-02-01T11:12:35;7.50;99.90
43671;DHT22;29267;50.906;7.248;2023-02-01T11:15:21;7.50;99.90
43671;DHT22;29267;50.906;7.248;2023-02-01T11:17:49;7.50;99.90
43671;DHT22;29267;50.906;7.248;2023-02-01T11:20:37;7.40;99.90
43671;DHT22;29267;50.906;7.248;2023-02-01T11:23:05;7.40;99.90
43671;DHT22;29267;50.906;7.248;2023-02-01T11:25:32;7.10;99.90
43671;DHT22;29267;50.906;7.248;2023-02-01T11:28:01;7.00;99.90
43671;DHT22;29267;50.906;7.248;2023-02-01T11:30:36;6.90;99.90
43671;DHT22;29267;50.906;7.248;2023-02-01T11:33:03;6.80;99.90
43671;DHT22;29267;50.906;7.248;2023-02-01T11:35:30;6.80;99.90
43671;DHT22;29267;50.906;7.248;2023-02-01T11:38:00;6.80;99.90
43671;DHT22;29267;50.906;7.248;2023-02-01T11:40:35;6.70;99.90
43671;DHT22;29267;50.906;7.248;2023-02-01T11:45:33;6.80;99.90
43671;DHT22;29267;50.906;7.248;2023-02-01T11:48:00;6.80;99.90
43671;DHT22;29267;50.906;7.248;2023-02-01T11:50:28;6.80;99.90
43671;DHT22;29267;50.906;7.248;2023-02-01T11:53:09;6.90;99.90
43671;DHT22;29267;50.906;7.248;2023-02-01T12:07:51;6.90;99.90
43671;DHT22;29267;50.906;7.248;2023-02-01T12:25:15;6.90;99.90
43671;DHT22;29267;50.906;7.248;2023-02-01T12:28:06;7.10;99.90
43671;DHT22;29267;50.906;7.248;2023-02-01T12:36:10;6.80;99.90
43671;DHT22;29267;50.906;7.248;2023-02-01T12:38:52;6.80;99.90
43671;DHT22;29267;50.906;7.248;2023-02-01T12:41:25;6.80;99.90
43671;DHT22;29267;50.906;7.248;2023-02-01T12:44:26;6.70;99.90
43671;DHT22;29267;50.906;7.248;2023-02-01T12:47:00;6.80;99.90
43671;DHT22;29267;50.906;7.248;2023-02-01T12:52:04;6.80;99.90
43671;DHT22;29267;50.906;7.248;2023-02-01T12:54:41;6.80;99.90
43671;DHT22;29267;50.906;7.248;2023-02-01T12:57:18;6.90;99.90
43671;DHT22;29267;50.906;7.248;2023-02-01T12:59:51;6.90;99.90
43671;DHT22;29267;50.906;7.248;2023-02-01T13:05:20;6.80;99.90
43671;DHT22;29267;50.906;7.248;2023-02-01T13:08:08;6.80;99.90
43671;DHT22;29267;50.906;7.248;2023-02-01T13:10:39;6.80;99.90
43671;DHT22;29267;50.906;7.248;2023-02-01T13:15:53;6.80;99.90
43671;DHT22;29267;50.906;7.248;2023-02-01T13:18:34;6.70;99.90
43671;DHT22;29267;50.906;7.248;2023-02-01T13:21:24;6.70;99.90
43671;DHT22;29267;50.906;7.248;2023-02-01T13:23:50;6.70;99.90
43671;DHT22;29267;50.906;7.248;2023-02-01T13:26:17;6.70;99.90
43671;DHT22;29267;50.906;7.248;2023-02-01T13:28:47;6.70;99.90
43671;DHT22;29267;50.906;7.248;2023-02-01T13:31:42;6.70;99.90
43671;DHT22;29267;50.906;7.248;2023-02-01T13:40:10;6.70;99.90
43671;DHT22;29267;50.906;7.248;2023-02-01T13:42:49;6.70;99.90
43671;DHT22;29267;50.906;7.248;2023-02-01T13:45:36;6.70;99.90
43671;DHT22;29267;50.906;7.248;2023-02-01T13:48:04;6.60;99.90
43671;DHT22;29267;50.906;7.248;2023-02-01T13:50:35;6.60;99.90
43671;DHT22;29267;50.906;7.248;2023-02-01T13:55:39;6.60;99.90
43671;DHT22;29267;50.906;7.248;2023-02-01T14:00:42;6.70;99.90
43671;DHT22;29267;50.906;7.248;2023-02-01T14:03:15;6.60;99.90
43671;DHT22;29267;50.906;7.248;2023-02-01T14:08:12;6.60;99.90
43671;DHT22;29267;50.906;7.248;2023-02-01T14:21:31;6.70;99.90
43671;DHT22;29267;50.906;7.248;2023-02-01T14:26:42;6.70;99.90
43671;DHT22;29267;50.906;7.248;2023-02-01T14:29:30;6.70;99.90
43671;DHT22;29267;50.906;7.248;2023-02-01T14:32:06;6.70;99.90
43671;DHT22;29267;50.906;7.248;2023-02-01T14:44:44;6.80;99.90
43671;DHT22;29267;50.906;7.248;2023-02-01T14:47:27;6.80;99.90
43671;DHT22;29267;50.906;7.248;2023-02-01T14:52:46;6.80;99.90
43671;DHT22;29267;50.906;7.248;2023-02-01T14:55:24;6.80;99.90
43671;DHT22;29267;50.906;7.248;2023-02-01T14:57:53;6.80;99.90
43671;DHT22;29267;50.906;7.248;2023-02-01T15:02:50;6.80;99.90
43671;DHT22;29267;50.906;7.248;2023-02-01T15:05:34;6.90;99.90
43671;DHT22;29267;50.906;7.248;2023-02-01T15:08:19;6.90;99.90
43671;DHT22;29267;50.906;7.248;2023-02-01T15:10:48;6.80;99.90
43671;DHT22;29267;50.906;7.248;2023-02-01T15:13:21;6.80;99.90
43671;DHT22;29267;50.906;7.248;2023-02-01T15:16:04;6.90;99.90
43671;DHT22;29267;50.906;7.248;2023-02-01T15:18:30;6.80;99.90
43671;DHT22;29267;50.906;7.248;2023-02-01T15:21:01;6.90;99.90
43671;DHT22;29267;50.906;7.248;2023-02-01T15:23:27;6.90;99.90
43671;DHT22;29267;50.906;7.248;2023-02-01T15:25:53;6.90;99.90
43671;DHT22;29267;50.906;7.248;2023-02-01T15:28:19;6.90;99.90
43671;DHT22;29267;50.906;7.248;2023-02-01T15:31:02;6.90;99.90
43671;DHT22;29267;50.906;7.248;2023-02-01T15:33:29;6.90;99.90
43671;DHT22;29267;50.906;7.248;2023-02-01T15:36:17;6.90;99.90
43671;DHT22;29267;50.906;7.248;2023-02-01T15:38:44;6.90;99.90
43671;DHT22;29267;50.906;7.248;2023-02-01T15:41:18;6.90;99.90
43671;DHT22;29267;50.906;7.248;2023-02-01T15:46:58;6.80;99.90
43671;DHT22;29267;50.906;7.248;2023-02-01T15:49:25;6.70;99.90
43671;DHT22;29267;50.906;7.248;2023-02-01T15:51:52;6.70;99.90
43671;DHT22;29267;50.906;7.248;2023-02-01T15:54:28;6.70;99.90
43671;DHT22;29267;50.906;7.248;2023-02-01T15:56:57;6.70;99.90
43671;DHT22;29267;50.906;7.248;2023-02-01T15:59:29;6.60;99.90
43671;DHT22;29267;50.906;7.248;2023-02-01T16:01:56;6.60;99.90
43671;DHT22;29267;50.906;7.248;2023-02-01T16:04:24;6.60;99.90
43671;DHT22;29267;50.906;7.248;2023-02-01T16:06:54;6.60;99.90
43671;DHT22;29267;50.906;7.248;2023-02-01T16:09:23;6.70;99.90
43671;DHT22;29267;50.906;7.248;2023-02-01T16:11:56;6.60;99.90
43671;DHT22;29267;50.906;7.248;2023-02-01T16:14:22;6.70;99.90
43671;DHT22;29267;50.906;7.248;2023-02-01T16:16:48;6.70;99.90
43671;DHT22;29267;50.906;7.248;2023-02-01T16:19:14;6.70;99.90
43671;DHT22;29267;50.906;7.248;2023-02-01T16:21:40;6.80;99.90
43671;DHT22;29267;50.906;7.248;2023-02-01T16:24:06;6.80;99.90
43671;DHT22;29267;50.906;7.248;2023-02-01T16:26:32;6.80;99.90
43671;DHT22;29267;50.906;7.248;2023-02-01T16:28:58;6.80;99.90
43671;DHT22;29267;50.906;7.248;2023-02-01T16:31:30;6.80;99.90
43671;DHT22;29267;50.906;7.248;2023-02-01T16:33:56;6.80;99.90
43671;DHT22;29267;50.906;7.248;2023-02-01T16:36:22;6.80;99.90
43671;DHT22;29267;50.906;7.248;2023-02-01T16:38:49;6.80;99.90
43671;DHT22;29267;50.906;7.248;2023-02-01T16:41:17;6.80;99.90
43671;DHT22;29267;50.906;7.248;2023-02-01T16:43:43;6.70;99.90
43671;DHT22;29267;50.906;7.248;2023-02-01T16:46:15;6.70;99.90
43671;DHT22;29267;50.906;7.248;2023-02-01T16:48:42;6.60;99.90
43671;DHT22;29267;50.906;7.248;2023-02-01T16:51:12;6.60;99.90
43671;DHT22;29267;50.906;7.248;2023-02-01T16:53:38;6.50;99.90
43671;DHT22;29267;50.906;7.248;2023-02-01T16:56:20;6.50;99.90
43671;DHT22;29267;50.906;7.248;2023-02-01T16:58:46;6.50;99.90
43671;DHT22;29267;50.906;7.248;2023-02-01T17:01:16;6.50;99.90
43671;DHT22;29267;50.906;7.248;2023-02-01T17:03:43;6.40;99.90
43671;DHT22;29267;50.906;7.248;2023-02-01T17:06:12;6.40;99.90
43671;DHT22;29267;50.906;7.248;2023-02-01T17:08:41;6.40;99.90
43671;DHT22;29267;50.906;7.248;2023-02-01T17:11:07;6.40;99.90
43671;DHT22;29267;50.906;7.248;2023-02-01T17:13:34;6.40;99.90
43671;DHT22;29267;50.906;7.248;2023-02-01T17:16:03;6.40;99.90
43671;DHT22;29267;50.906;7.248;2023-02-01T17:18:32;6.40;99.90
43671;DHT22;29267;50.906;7.248;2023-02-01T17:21:00;6.40;99.90
43671;DHT22;29267;50.906;7.248;2023-02-01T17:23:27;6.40;99.90
43671;DHT22;29267;50.906;7.248;2023-02-01T17:25:54;6.30;99.90
43671;DHT22;29267;50.906;7.248;2023-02-01T17:28:20;6.30;99.90
43671;DHT22;29267;50.906;7.248;2023-02-01T17:30:46;6.30;99.90
43671;DHT22;29267;50.906;7.248;2023-02-01T17:33:44;6.30;99.90
43671;DHT22;29267;50.906;7.248;2023-02-01T17:36:12;6.30;99.90
43671;DHT22;29267;50.906;7.248;2023-02-01T17:38:38;6.30;99.90
43671;DHT22;29267;50.906;7.248;2023-02-01T17:41:04;6.20;99.90
43671;DHT22;29267;50.906;7.248;2023-02-01T17:43:29;6.30;99.90
43671;DHT22;29267;50.906;7.248;2023-02-01T17:45:58;6.20;99.90
43671;DHT22;29267;50.906;7.248;2023-02-01T17:48:25;6.30;99.90
43671;DHT22;29267;50.906;7.248;2023-02-01T17:50:51;6.20;99.90
43671;DHT22;29267;50.906;7.248;2023-02-01T17:53:24;6.20;99.90
43671;DHT22;29267;50.906;7.248;2023-02-01T17:55:50;6.30;99.90
43671;DHT22;29267;50.906;7.248;2023-02-01T17:58:17;6.20;99.90
43671;DHT22;29267;50.906;7.248;2023-02-01T18:00:44;6.20;99.90
43671;DHT22;29267;50.906;7.248;2023-02-01T18:03:26;6.20;99.90
43671;DHT22;29267;50.906;7.248;2023-02-01T18:05:54;6.20;99.90
43671;DHT22;29267;50.906;7.248;2023-02-01T18:08:21;6.20;99.90
43671;DHT22;29267;50.906;7.248;2023-02-01T18:10:55;6.20;99.90
43671;DHT22;29267;50.906;7.248;2023-02-01T18:13:24;6.20;99.90
43671;DHT22;29267;50.906;7.248;2023-02-01T18:15:49;6.20;99.90